Tiempo atmosférico en la estación meteorológica de Girona Aeropuerto, Girona (143 m.)



Fecha
DESCASC
Temp. máxima en grados centígrados (hora)
DESCASC
Temp. mínima en grados centígrados (hora)
DESCASC
Temp. media en grados centígrados
DESCASC
Racha de viento máxima en m/sg (hora)
DESCASC
Velocidad máxima media en intervalos de 10 minutos(hora)
DESCASC
Precipitaciones diarias en mm
DESCASC
Precipitaciones de 00:00 a 06:00 en mm
DESCASC
Precipitaciones de 06:00 a 12:00 en mm
DESCASC
Precipitaciones de 12:00 a 18:00 en mm
DESCASC
Precipitaciones de 18:00 a 24:00 en mm
DESCASC
17-09-2020 31.3 (15:50) 15.7 (07:40) 23.5 6.67 (14:50) 4.72 (16:50) 0 0 0 0 0
16-09-2020 32.6 (15:10) 17 (07:20) 24.8 7.78 (15:10) 5.28 (15:20) 0 0 0 0 0
15-09-2020 31.2 (14:50) 14.1 (07:50) 22.7 10.28 (12:30) 6.67 (12:50) 0 0 0 0 0
14-09-2020 31.9 (14:30) 14.5 (00:00) 23.2 8.89 (17:40) 6.39 (16:00) 0 0 0 0 0
13-09-2020 34 (16:00) 14.8 (00:00) 24.4 7.78 (16:40) 5.83 (16:40) 0 0 0 0 0
12-09-2020 33.1 (16:10) 17.5 (00:00) 25.3 7.78 (13:10) 5.56 (16:50) 0 0 0 0 0
11-09-2020 30.6 (16:20) 17.5 (00:00) 24.1 12.5 (15:30) 8.61 (15:50) 0.1 0.1 0 0 0
10-09-2020 28.2 (13:50) 14.2 (00:00) 21.2 11.39 (14:00) 7.5 (14:50) 0 0 0 0 0
09-09-2020 26.4 (14:40) 17.3 (00:00) 21.8 9.17 (08:40) 6.39 (08:40) 20.5 0.4 0 15.1 5
08-09-2020 27.4 (14:30) 11.7 (00:00) 19.5 12.78 (13:10) 8.33 (13:10) 2.2 0 0 2.2 0
07-09-2020 24.9 (14:30) 13.5 (23:50) 19.2 7.78 (14:00) 5.56 (14:40) 0 0 0 0 0
06-09-2020 26.4 (12:50) 17.6 (00:00) 22 8.33 (19:20) 5.28 (19:20) 2.9 0 0 2.9 0
05-09-2020 30.4 (15:00) 18.8 (00:00) 24.6 7.22 (15:50) 5 (18:00) 0 0 0 0 0
04-09-2020 31.3 (15:20) 15.3 (00:00) 23.3 8.33 (16:20) 5.83 (17:00) 0 0 0 0 0
03-09-2020 28.7 (14:40) 14.2 (00:00) 21.5 10.28 (15:30) 6.67 (18:20) 0 0 0 0 0
02-09-2020 27.7 (17:00) 14.4 (00:00) 21.1 8.89 (17:00) 5.83 (17:20) 0 0 0 0 0
01-09-2020 27.1 (14:20) 12.5 (00:00) 19.8 16.11 (20:40) 12.22 (20:40) 31.2 0 0 0 31.2
31-08-2020 27.5 (16:30) 10.7 (00:00) 19.1 7.22 (17:10) 4.17 (17:20) 0 0 0 0 0
30-08-2020 25.2 (13:10) 10.8 (00:00) 18 8.89 (01:40) 5 (01:50) 3.9 1.5 0 1.4 1
29-08-2020 23.3 (16:30) 13.9 (00:00) 18.6 12.78 (02:50) 7.5 (02:40) 5.1 1.9 2.8 0 0.4
28-08-2020 34.3 (15:20) 17.3 (00:00) 25.8 10.28 (18:40) 7.22 (18:40) 0.5 0 0 0 0.5
27-08-2020 32.9 (15:00) 19.4 (00:00) 26.2 10.28 (16:00) 7.22 (17:30) 0 0 0 0 0
26-08-2020 33.2 (14:30) 19 (00:00) 26.1 10.28 (13:00) 7.22 (16:00) 0 0 0 0 0
25-08-2020 35.4 (15:10) 16.5 (00:00) 26 9.17 (17:00) 6.94 (17:30) 0 0 0 0 0
24-08-2020 31.4 (14:20) 19.6 (00:00) 25.5 10.83 (15:10) 7.5 (15:10) 0 0 0 0 0
23-08-2020 29.8 (12:40) 18.1 (00:00) 23.9 9.17 (16:30) 7.22 (16:30) 0 0 0 0 0
22-08-2020 35.7 (15:10) 21.7 (00:00) 28.7 10.28 (16:10) 7.22 (16:10) 0 0 0 0 0
21-08-2020 34.9 (14:50) 18.4 (00:00) 26.7 9.72 (16:20) 6.67 (17:00) 0 0 0 0 0

Gráficas

Temp. máximas Temp. mínimas Temp. medias Precipitaciones Rachas de viento máximas Velocidades máximas media en intervalos de 10 minutos

Datos horarios

Fecha y hora oficial Temperatura (ºC) Velocidad del viento (km/h) Dirección del viento Racha (km/h) Dirección de racha Precipitación (mm) Presión (hPa) Tendencia (hPa) Humedad (%)
2020-09-19 23:00:00 20.4 18 Sur 24 Sudoeste 0 996.8 1.1 90
2020-09-19 22:00:00 21.3 15 Sudoeste 22 Sudoeste 0 996.3 0.3 89
2020-09-19 21:00:00 21.4 14 Sudoeste 26 Sudoeste 0 995.8 0 86
2020-09-19 20:00:00 21.9 14 Sur 21 Sur 0 995.7 -0.1 81
2020-09-19 19:00:00 23.4 12 Sur 26 Sur 0 996 -0.2 75
2020-09-19 18:00:00 25.3 17 Sur 28 Sur 0 995.8 -0.4 68
2020-09-19 17:00:00 23.8 21 Sur 41 Sudoeste 0.2 995.8 -1.4 72
2020-09-19 16:00:00 26.7 23 Sur 39 Sur 0 996.2 -1.7 63
2020-09-19 15:00:00 29.4 24 Sur 35 Sur 0 996.2 -- 54
2020-09-19 14:00:00 27.9 19 Sur 35 Sur 0 997.2 -- 59
2020-09-19 13:00:00 28.9 21 Sur 32 Sur 0 997.9 -- 56
2020-09-19 12:00:00 27.3 14 Sur 22 Sur 0 998.8 -- 63
2020-09-19 11:00:00 24.4 9 Sur 13 Sur 0 999.2 -- 73
2020-09-19 10:00:00 21.5 9 Sur 15 Sur 0 998.8 -- 85
2020-09-19 09:00:00 18 3 Oeste 9 Oeste 0 998.4 -- 96
2020-09-19 08:00:00 16.1 0 Calma 5 Norte 0 998.6 -- 99
2020-09-19 07:00:00 16.8 3 Noroeste 9 Noroeste 0 998.4 -- 98
2020-09-19 06:00:00 17 0 Calma 9 Oeste 0 998.6 -- 97
2020-09-19 05:00:00 17.2 0 Calma 5 Oeste 0 999 -- 97
2020-09-19 04:00:00 18.1 2 Oeste 5 Oeste 0 999.6 -- 97
2020-09-19 03:00:00 18.4 0 Calma 11 Este 0 1000 -- 96
2020-09-19 02:00:00 19.1 5 Noroeste 15 Oeste 0 1000.3 -- 94
2020-09-19 01:00:00 19.3 7 Oeste 11 Oeste 0 1000.1 -- 94
2020-09-19 00:00:00 19.7 3 Oeste 5 Oeste 0 1000.6 -- 90
2020-09-18 23:00:00 20.6 0 Calma 8 Noroeste 0 1000.7 -- 87
2020-09-18 22:00:00 20.9 3 Norte 9 Noroeste 0 1000.4 -- 84
2020-09-18 21:00:00 21.9 7 Oeste 11 Oeste 0 1000.6 -- 80
2020-09-18 20:00:00 23.2 3 Sur 9 Oeste 0 999.7 -- 74
2020-09-18 19:00:00 24.5 6 Oeste 13 Sudeste 0 1000.3 -- 67
2020-09-18 18:00:00 25.6 5 Este 9 Sudeste 0 1000.5 -- 62
2020-09-18 17:00:00 24.1 5 Nordeste 11 Norte 0 1000.9 -- 71
2020-09-18 16:00:00 21.8 4 Noroeste 21 Noroeste 0 1001.6 -- 82
2020-09-18 15:00:00 22 11 Noroeste 24 Noroeste 0.7 1002 -- 78
2020-09-18 14:00:00 24.7 13 Sudoeste 17 Sudoeste 0 1001.9 -- 68
2020-09-18 13:00:00 24.8 10 Sur 17 Sur 0 1001.7 -- 69
2020-09-18 12:00:00 23.7 10 Sudoeste 15 Sudoeste 0 1001.5 -- 64
2020-09-18 11:00:00 22.9 5 Sur 9 Sur 0 1001.8 -- 68
2020-09-18 10:00:00 20.2 3 Sudoeste 8 Sudoeste 0 1001.3 -- 85
2020-09-18 09:00:00 18.5 0 Calma 8 Oeste 0 1000.7 -- 92
2020-09-18 08:00:00 17.6 3 Sur 11 Oeste 0 1000.3 -- 94
2020-09-18 07:00:00 16.9 3 Oeste 8 Oeste 0 999.9 -- 96
2020-09-18 06:00:00 17.9 0 Calma 5 Oeste 0 999.6 -- 97
2020-09-18 05:00:00 18.3 3 Oeste -- -- 0 999.5 -- 96
2020-09-18 04:00:00 18.7 8 Oeste 9 Oeste 0 999.5 -- 97
2020-09-18 03:00:00 19.3 4 Nordeste 9 Norte 0 999.6 -- 94
2020-09-18 02:00:00 20.3 6 Sudoeste 11 Sudoeste 0 1000.2 -- 90
2020-09-18 01:00:00 20.1 3 Sudoeste 5 Sudoeste 0 1000.2 -- 87
2020-09-18 00:00:00 21.4 5 Oeste 9 Sur 0 1000 -- 80
2020-09-17 23:00:00 22.8 3 Oeste 18 Sur 0 1000 -- 73
2020-09-17 22:00:00 23.3 15 Sur 21 Sur 0 999.7 -- 74
2020-09-17 21:00:00 23.2 7 Sur 13 Sur 0 999.4 -- 74
2020-09-17 20:00:00 24.4 10 Sur 18 Sur 0 999 -- 69
2020-09-17 19:00:00 27.2 13 Sur 21 Sur 0 998.9 -- 56
2020-09-17 18:00:00 29.4 16 Sur 24 Sur 0 998.7 -- 46
2020-09-17 17:00:00 30 16 Sur 22 Sur 0 998.9 -- 44
2020-09-17 16:00:00 30.7 12 Sur 21 Sur 0 999.5 -- 41
2020-09-17 15:00:00 30.1 17 Sudoeste 24 Sudoeste 0 1000.1 -- 46
2020-09-17 14:00:00 30 11 Sur 22 Sur 0 1000.3 -- 49
2020-09-17 13:00:00 29.5 7 Sur 13 Sur 0 1000.5 -- 48
2020-09-17 12:00:00 26.7 5 Sur 8 Sur 0 1000.8 -- 63
2020-09-17 11:00:00 26.6 3 Este 5 Este 0 1000.8 -- 62
2020-09-17 10:00:00 22.5 2 Este 8 Nordeste 0 1000.7 -- 76
2020-09-17 09:00:00 19.3 0 Calma 5 Sudeste 0 1000.6 -- 92
2020-09-17 08:00:00 16.2 3 Norte 8 Nordeste 0 1000.4 -- 100
2020-09-17 07:00:00 15.9 5 Nordeste 11 Nordeste 0 1000.2 -- 98
2020-09-17 06:00:00 16.3 4 Sudoeste 11 Nordeste 0 1000 -- 99
2020-09-17 05:00:00 16.9 3 Oeste 9 Nordeste 0 999.9 -- 97
2020-09-17 04:00:00 17.6 3 Sur 5 Sur 0 1000.4 -- 96
2020-09-17 03:00:00 18 0 Calma 9 Oeste 0 1000.8 -- 91
2020-09-17 02:00:00 18.7 6 Oeste 9 Oeste 0 1001.2 -- 90
2020-09-17 01:00:00 18.8 0 Calma 8 Sudoeste 0 1001.4 -- 94
2020-09-17 00:00:00 19.9 3 Sur 9 Norte 0 1001.5 -- 87
2020-09-16 23:00:00 21.2 6 Oeste 9 Oeste 0 1001.6 -- 89
2020-09-16 22:00:00 22.1 0 Calma -- -- 0 1001.5 -- 90
2020-09-16 21:00:00 22.9 9 Sudoeste 9 Sudoeste 0 1001.2 -- 87
2020-09-16 20:00:00 24.7 3 Sudoeste 17 Sur 0 1000.9 -- 79
2020-09-16 19:00:00 26.3 10 Sur 18 Sur 0 1000.9 -- 70
2020-09-16 18:00:00 26.8 14 Sur 22 Sur 0 1000.9 -- 68
2020-09-16 17:00:00 29 16 Sur 24 Sur 0 1001 -- 59
2020-09-16 16:00:00 31.5 17 Sur 28 Sur 0 1001.3 -- 51
2020-09-16 15:00:00 32.4 11 Sur 18 Sudoeste 0 1001.8 -- 44
2020-09-16 14:00:00 31.7 5 Sudoeste 11 Oeste 0 1002.5 -- 41
2020-09-16 13:00:00 29.9 5 Sur 13 Sur 0 1003.1 -- 52
2020-09-16 12:00:00 28.4 8 Sur 13 Sur 0 1003.5 -- 61
2020-09-16 11:00:00 26.3 3 Este 9 Este 0 1003.9 -- 69
2020-09-16 10:00:00 23.4 0 Calma 5 Este 0 1004 -- 83
2020-09-16 09:00:00 20.1 0 Calma 4 Nordeste 0 1003.9 -- 97
2020-09-16 08:00:00 17.3 0 Calma 5 Nordeste 0 1003.6 -- 100
2020-09-16 07:00:00 17.1 4 Nordeste 5 Nordeste 0 1003.3 -- 100
2020-09-16 06:00:00 18.2 2 Oeste 5 Oeste 0 1003.3 -- 100
2020-09-16 05:00:00 18.4 0 Calma 5 Norte 0 1003.4 -- 100
2020-09-16 04:00:00 18.6 0 Calma 4 Este 0 1003.5 -- 100
2020-09-16 03:00:00 18.8 0 Calma 8 Norte 0 1003.8 -- 98
2020-09-16 02:00:00 19.4 2 Norte 5 Norte 0 1004.1 -- 98
2020-09-16 01:00:00 20 6 Nordeste 8 Nordeste 0 1004.1 -- 99
2020-09-16 00:00:00 20.8 0 Calma 5 Nordeste 0 1004.2 -- 94
2020-09-15 23:00:00 21.8 5 Sudoeste 8 Sudoeste 0 1004.2 -- 92
2020-09-15 22:00:00 22.5 5 Sudoeste 11 Sur 0 1004.2 -- 90
2020-09-15 21:00:00 23.4 10 Sur 22 Sur 0 1003.7 -- 85
2020-09-15 20:00:00 24.5 14 Sur 21 Sur 0 1003.5 -- 78
2020-09-15 19:00:00 25.9 13 Sur 30 Sur 0 1003.2 -- 70
2020-09-15 18:00:00 28.3 22 Sur 30 Sur 0 1003.1 -- 60
2020-09-15 17:00:00 29.6 23 Sur 32 Sur 0 1003.1 -- 54
2020-09-15 16:00:00 30.4 24 Sur 33 Sur 0 1003.6 -- 49
2020-09-15 15:00:00 31.1 23 Sur 30 Sur 0 1004.1 -- 42
2020-09-15 14:00:00 30.4 14 Sur 35 Sur 0 1004.6 -- 43
2020-09-15 13:00:00 29.6 22 Sur 37 Sur 0 1005.1 -- 44
2020-09-15 12:00:00 28.6 19 Sur 28 Sur 0 1005.6 -- 51
2020-09-15 11:00:00 25.5 6 Sur 9 Sur 0 1005.7 -- 59
2020-09-15 10:00:00 21.2 0 Calma 15 Oeste 0 1005 -- 78
2020-09-15 09:00:00 18.1 0 Calma 5 Noroeste 0 1005 -- 90
2020-09-15 08:00:00 14.5 0 Calma 2 Sudeste 0 1004.9 -- 99
2020-09-15 07:00:00 14.5 0 Calma 5 Norte 0 1004.7 -- 99
2020-09-15 06:00:00 14.6 0 Calma 5 Oeste 0 1005 -- 100
2020-09-15 05:00:00 14.7 0 Calma -- -- 0 1005.4 -- 99
2020-09-15 04:00:00 15 0 Calma 2 Oeste 0 1005.7 -- 97
2020-09-15 03:00:00 16 0 Calma 8 Oeste 0 1005.8 -- 95
2020-09-15 02:00:00 16.7 0 Calma 8 Oeste 0 1006 -- 97
2020-09-15 01:00:00 16.9 0 Calma 5 Oeste 0 1006.3 -- 97
2020-09-15 00:00:00 18.1 0 Calma 5 Oeste 0 1006.3 -- 92
2020-09-14 23:00:00 20 5 Oeste 8 Oeste 0 1006.4 -- 88
2020-09-14 22:00:00 21 4 Oeste 13 Sur 0 1006.5 -- 85
2020-09-14 21:00:00 22.3 8 Sur 18 Sur 0 1005.9 -- 80
2020-09-14 20:00:00 24.5 14 Sur 26 Sur 0 1005.3 -- 64
2020-09-14 19:00:00 26.9 17 Sur 28 Sur 0 1005.4 -- 55
2020-09-14 18:00:00 28.6 18 Sur 32 Sur 0 1005.5 -- 51
2020-09-14 17:00:00 29.4 22 Sur 30 Sur 0 1005.7 -- 48
2020-09-14 16:00:00 30.5 23 Sur 30 Sur 0 1006.3 -- 47
2020-09-14 15:00:00 31.7 19 Sur 30 Sur 0 1006.7 -- 44
2020-09-14 14:00:00 31.6 14 Sur 22 Sudoeste 0 1007.1 -- 40
2020-09-14 13:00:00 30.6 11 Sur 18 Sur 0 1007.7 -- 43
2020-09-14 12:00:00 28.7 7 Sur 13 Sur 0 1008.2 -- 51
2020-09-14 11:00:00 26.1 3 Este 9 Sudeste 0 1008.3 -- 58
2020-09-14 10:00:00 22.5 2 Sur 5 Sudeste 0 1008.1 -- 72
2020-09-14 09:00:00 19.2 0 Calma 2 Nordeste 0 1007.8 -- 85
2020-09-14 08:00:00 15 0 Calma 8 Nordeste 0 1007.4 -- 98
2020-09-14 07:00:00 15.7 4 Oeste 9 Oeste 0 1006.9 -- 97
2020-09-14 06:00:00 14.9 8 Oeste 9 Sudoeste 0 1007.1 -- 99
2020-09-14 05:00:00 15.6 4 Oeste 8 Oeste 0 1007.2 -- 96
2020-09-14 04:00:00 15.8 0 Calma 8 Noroeste 0 1007.3 -- 94
2020-09-14 03:00:00 16.4 4 Norte 11 Noroeste 0 1007.5 -- 90
2020-09-14 02:00:00 16.7 0 Calma 8 Este 0 1007.9 -- 86
2020-09-14 01:00:00 17.3 4 Nordeste 8 Noroeste 0 1008.1 -- 87
2020-09-14 00:00:00 18.4 0 Calma 4 Nordeste 0 1008.3 -- 82
2020-09-13 23:00:00 19.4 3 Este 5 Nordeste 0 1008.2 -- 80
2020-09-13 22:00:00 20.6 0 Calma 5 Sudoeste 0 1007.7 -- 75
2020-09-13 21:00:00 22.9 4 Sur 13 Sur 0 1007 -- 63
2020-09-13 20:00:00 25 10 Sur 18 Sur 0 1006.6 -- 52
2020-09-13 19:00:00 28.9 12 Sur 21 Sur 0 1006.3 -- 44
2020-09-13 18:00:00 30.6 17 Sur 26 Sudoeste 0 1006.1 -- 38
2020-09-13 17:00:00 31.9 17 Sur 28 Sur 0 1006.1 -- 38
2020-09-13 16:00:00 33.9 9 Sur 21 Sur 0 1006 -- 31
2020-09-13 15:00:00 33.3 7 Sur 15 Sudoeste 0 1006.3 -- 31
2020-09-13 14:00:00 32.8 3 Sur 13 Nordeste 0 1006.8 -- 30
2020-09-13 13:00:00 31.1 6 Nordeste 18 Norte 0 1007.2 -- 32
2020-09-13 12:00:00 29.6 11 Nordeste 22 Nordeste 0 1007.5 -- 36
2020-09-13 11:00:00 28 13 Norte 21 Norte 0 1007.5 -- 42
2020-09-13 10:00:00 24 3 Nordeste 5 Nordeste 0 1007.1 -- 70
2020-09-13 09:00:00 19.5 3 Nordeste 5 Nordeste 0 1006.6 -- 82
2020-09-13 08:00:00 15.4 0 Calma 8 Nordeste 0 1006.2 -- 97
2020-09-13 07:00:00 15.1 4 Nordeste 9 Norte 0 1005.7 -- 97
2020-09-13 06:00:00 15.3 2 Norte 8 Nordeste 0 1005.3 -- 96
2020-09-13 05:00:00 15.9 0 Calma 5 Este 0 1005.1 -- 94
2020-09-13 04:00:00 16.9 2 Oeste 9 Oeste 0 1005 -- 89
2020-09-13 03:00:00 17.3 0 Calma 8 Nordeste 0 1005 -- 88
2020-09-13 02:00:00 18.2 4 Oeste 9 Nordeste 0 1005.3 -- 85
2020-09-13 01:00:00 18.5 5 Oeste 9 Oeste 0 1005.3 -- 83
2020-09-13 00:00:00 19.4 3 Oeste 5 Oeste 0 1005.4 -- 78
2020-09-12 23:00:00 20.5 2 Nordeste 8 Nordeste 0 1005.2 -- 77
2020-09-12 22:00:00 22.1 3 Norte 8 Oeste 0 1004.5 -- 68
2020-09-12 21:00:00 24 5 Sudoeste 11 Sudoeste 0 1003.8 -- 60
2020-09-12 20:00:00 25.8 8 Sudoeste 17 Sur 0 1003.2 -- 53
2020-09-12 19:00:00 28.3 15 Sur 24 Sudoeste 0 1002.8 -- 43
2020-09-12 18:00:00 30 19 Sur 26 Sur 0 1002.4 -- 40
2020-09-12 17:00:00 31.1 20 Sur 28 Sur 0 1002 -- 39
2020-09-12 16:00:00 32.8 4 Sudoeste 17 Norte 0 1002 -- 29
2020-09-12 15:00:00 32.2 10 Nordeste 24 Nordeste 0 1002.2 -- 31
2020-09-12 14:00:00 31.7 14 Nordeste 28 Norte 0 1002.5 -- 33
2020-09-12 13:00:00 30.7 13 Nordeste 24 Nordeste 0 1002.6 -- 37
2020-09-12 12:00:00 29.8 10 Nordeste 15 Nordeste 0 1002.7 -- 39
2020-09-12 11:00:00 27.4 3 Noroeste 9 Oeste 0 1002.5 -- 56
2020-09-12 10:00:00 24.2 3 Sudoeste 8 Sudoeste 0 1002 -- 67
2020-09-12 09:00:00 21.2 0 Calma 9 Oeste 0 1001.6 -- 81
2020-09-12 08:00:00 17.8 2 Noroeste 9 Oeste 0 1001 -- 93
2020-09-12 07:00:00 17.7 4 Oeste 9 Oeste 0 1000.4 -- 93
2020-09-12 06:00:00 18.2 3 Oeste 9 Sudoeste 0 1000.1 -- 94
2020-09-12 05:00:00 18.3 5 Oeste 9 Norte 0 1000.2 -- 94
2020-09-12 04:00:00 18.2 3 Este 8 Nordeste 0 1000.2 -- 95
2020-09-12 03:00:00 19.2 7 Noroeste 17 Noroeste 0 1000 -- 85
2020-09-12 02:00:00 18.5 3 Oeste 9 Oeste 0 1000.2 -- 92
2020-09-12 01:00:00 18.6 0 Calma 9 Norte 0 1000.1 -- 90
2020-09-12 00:00:00 19.3 5 Noroeste 13 Oeste 0 1000.4 -- 85
2020-09-11 23:00:00 19.7 5 Sudoeste 8 Sudoeste 0 1000.4 -- 87
2020-09-11 22:00:00 20.6 4 Este 11 Sur 0 1000 -- 83
2020-09-11 21:00:00 22.7 9 Sur 11 Sur 0 999 -- 73
2020-09-11 20:00:00 24.9 4 Sur 13 Sudeste 0 998.5 -- 59
2020-09-11 19:00:00 28 11 Sudeste 15 Sudeste 0 998.2 -- 46
2020-09-11 18:00:00 28 9 Este 30 Este 0 998.2 -- 45
2020-09-11 17:00:00 29.5 17 Este 42 Nordeste 0 997.9 -- 41
2020-09-11 16:00:00 30.4 26 Nordeste 45 Nordeste 0 997.7 -- 39
2020-09-11 15:00:00 30.3 26 Nordeste 42 Nordeste 0 997.7 -- 39
2020-09-11 14:00:00 29.4 25 Nordeste 37 Nordeste 0 997.9 -- 43
2020-09-11 13:00:00 29.5 20 Nordeste 33 Nordeste 0 998.3 -- 44
2020-09-11 12:00:00 26.5 11 Norte 21 Nordeste 0 998.3 -- 55
2020-09-11 11:00:00 26.7 0 Calma 9 Oeste 0 998.3 -- 60
2020-09-11 10:00:00 24.4 0 Calma 5 Este 0 998 -- 75
2020-09-11 09:00:00 20.7 2 Este 8 Oeste 0 998 -- 89
2020-09-11 08:00:00 17.6 3 Oeste 5 Oeste 0 997.8 -- 100
2020-09-11 07:00:00 17.9 0 Calma -- -- 0 997.6 -- 100
2020-09-11 06:00:00 18.1 0 Calma 8 Sudoeste 0 997.5 -- 100
2020-09-11 05:00:00 18.4 5 Sur 8 Sudoeste 0 997.6 -- 100
2020-09-11 04:00:00 18.5 7 Sudoeste 9 Sudoeste 0 997.8 -- 99
2020-09-11 03:00:00 19.2 2 Sur 11 Nordeste 0 998.3 -- 97
2020-09-11 02:00:00 19.5 6 Oeste 18 Oeste 0 999 -- 96
2020-09-11 01:00:00 19.8 8 Sur 18 Este 0.1 999.4 -- 96
2020-09-11 00:00:00 19.7 4 Sur 9 Este 0 999.6 -- 94
2020-09-10 23:00:00 20.4 0 Calma 8 Este 0 999.9 -- 91
2020-09-10 22:00:00 20.7 4 Sudoeste 11 Sudoeste 0 1000.1 -- 89
2020-09-10 21:00:00 21.6 8 Sudeste 11 Sudeste 0 1000 -- 84
2020-09-10 20:00:00 22.7 9 Sur 13 Sur 0 999.7 -- 78
2020-09-10 19:00:00 24.4 5 Sur 11 Sur 0 999.8 -- 68
2020-09-10 18:00:00 25.1 6 Este 39 Nordeste 0 999.8 -- 64
2020-09-10 17:00:00 26.3 4 Nordeste 22 Nordeste 0 1000.4 -- 55
2020-09-10 16:00:00 25.9 16 Norte 35 Nordeste 0 1000.6 -- 55
2020-09-10 15:00:00 26.9 26 Nordeste 37 Nordeste 0 1001 -- 52
2020-09-10 14:00:00 27.4 26 Nordeste 41 Nordeste 0 1000.9 -- 50
2020-09-10 13:00:00 26.9 13 Nordeste 24 Nordeste 0 1001.6 -- 53
2020-09-10 12:00:00 26.2 4 Este 13 Este 0 1002.2 -- 58
2020-09-10 11:00:00 24.4 3 Este 9 Oeste 0 1002 -- 66
2020-09-10 10:00:00 22.1 0 Calma 8 Sudeste 0 1001.9 -- 77
2020-09-10 09:00:00 18 3 Sudeste 5 Este 0 1002 -- 94
2020-09-10 08:00:00 14.5 0 Calma 8 Este 0 1002.3 -- 100
2020-09-10 07:00:00 14.6 5 Norte 8 Noroeste 0 1002.4 -- 100
2020-09-10 06:00:00 15.2 4 Noroeste 9 Noroeste 0 1002.4 -- 100
2020-09-10 05:00:00 15.4 7 Noroeste 9 Noroeste 0 1002.7 -- 100
2020-09-10 04:00:00 15.6 4 Noroeste 13 Noroeste 0 1002.9 -- 99
2020-09-10 03:00:00 16.3 6 Norte 13 Noroeste 0 1003.1 -- 97
2020-09-10 02:00:00 16.3 6 Noroeste 9 Norte 0 1003.8 -- 100
2020-09-10 01:00:00 17 3 Norte 11 Noroeste 0 1004.3 -- 97
2020-09-10 00:00:00 17.5 9 Noroeste 13 Noroeste 0 1004.5 -- 96
2020-09-09 23:00:00 17.7 0 Calma 8 Norte 0 1004.9 -- 99
2020-09-09 22:00:00 18.4 0 Calma 8 Norte 0 1004.9 -- 97
2020-09-09 21:00:00 20 5 Nordeste 9 Este 0 1004.4 -- 92
2020-09-09 20:00:00 20.6 4 Norte 18 Norte 5 1004.1 -- 95
2020-09-09 19:00:00 24.1 0 Calma 9 Oeste 0 1004 -- 72
2020-09-09 18:00:00 22.6 4 Sudoeste 9 Oeste 0 1004.3 -- 86
2020-09-09 17:00:00 21.4 8 Oeste 24 Este 6.5 1004.2 -- 92
2020-09-09 16:00:00 20.5 9 Sudeste 28 Sudeste 8.6 1004.9 -- 91
2020-09-09 15:00:00 25.1 12 Nordeste 22 Norte 0 1004.6 -- 59
2020-09-09 14:00:00 24.9 13 Nordeste 26 Nordeste 0 1004.9 -- 60
2020-09-09 13:00:00 24.4 15 Norte 24 Norte 0 1005.6 -- 65
2020-09-09 12:00:00 22.6 13 Norte 24 Nordeste 0 1006.3 -- 72
2020-09-09 11:00:00 21.7 16 Norte 32 Norte 0 1006.2 -- 75
2020-09-09 10:00:00 20.9 19 Norte 30 Norte 0 1005.9 -- 83
2020-09-09 09:00:00 20 18 Nordeste 33 Norte 0 1005.8 -- 90
2020-09-09 08:00:00 18.3 11 Nordeste 15 Nordeste 0 1005.5 -- 97
2020-09-09 07:00:00 17.8 9 Norte 13 Norte 0 1005.1 -- 98
2020-09-09 06:00:00 18.1 10 Nordeste 15 Norte 0.1 1005.1 -- 96
2020-09-09 05:00:00 18 6 Norte 11 Norte 0 1005.3 -- 94
2020-09-09 04:00:00 18.2 9 Norte 17 Norte 0 1005.7 -- 92
2020-09-09 03:00:00 17.9 8 Norte 21 Norte 0.2 1006 -- 94
2020-09-09 02:00:00 18.4 13 Norte 21 Norte 0.1 1006.1 -- 85
2020-09-09 01:00:00 17.8 8 Noroeste 13 Noroeste 0 1006.4 -- 86
2020-09-09 00:00:00 17.6 6 Norte 13 Noroeste 0 1006.9 -- 85
2020-09-08 23:00:00 16.6 4 Nordeste 11 Norte 0 1006.8 -- 95
2020-09-08 22:00:00 17.2 3 Nordeste 9 Este 0 1006.9 -- 95
2020-09-08 21:00:00 17.7 4 Noroeste 13 Norte 0 1006.7 -- 82
2020-09-08 20:00:00 18 6 Norte 18 Norte 0 1006.8 -- 83
2020-09-08 19:00:00 17.9 10 Norte 18 Norte 0 1007 -- 88
2020-09-08 18:00:00 17.4 13 Norte 28 Nordeste 0.7 1007.4 -- 89
2020-09-08 17:00:00 18.9 16 Norte 32 Nordeste 0.1 1007.5 -- 78
2020-09-08 16:00:00 20.1 20 Nordeste 45 Este 1.4 1007.1 -- 76
2020-09-08 15:00:00 25.6 22 Nordeste 41 Norte 0 1006.7 -- 40
2020-09-08 14:00:00 26 25 Norte 46 Norte 0 1006.8 -- 38
2020-09-08 13:00:00 26.3 27 Norte 41 Norte 0 1007 -- 37
2020-09-08 12:00:00 23.4 24 Nordeste 41 Norte 0 1007.2 -- 42
2020-09-08 11:00:00 22.2 27 Norte 37 Nordeste 0 1006.8 -- 46
2020-09-08 10:00:00 20.2 23 Norte 33 Nordeste 0 1006.7 -- 51
2020-09-08 09:00:00 19.5 16 Norte 26 Norte 0 1006.4 -- 57
2020-09-08 08:00:00 15.5 7 Noroeste 13 Norte 0 1006.1 -- 68
2020-09-08 07:00:00 14.1 10 Noroeste 15 Noroeste 0 1005.6 -- 76
2020-09-08 06:00:00 14.1 9 Noroeste 13 Noroeste 0 1005.3 -- 78
2020-09-08 05:00:00 12.9 6 Norte 15 Noroeste 0 1005.3 -- 90
2020-09-08 04:00:00 11.9 5 Norte 9 Nordeste 0 1005.2 -- 98
2020-09-08 03:00:00 12.1 0 Calma 5 Nordeste 0 1005.3 -- 97
2020-09-08 02:00:00 12.4 4 Nordeste -- -- 0 1005.4 -- 97
2020-09-08 01:00:00 13 2 Nordeste 5 Nordeste 0 1005.4 -- 97
2020-09-08 00:00:00 13.6 5 Oeste 9 Sudoeste 0 1005.4 -- 91
2020-09-07 23:00:00 14.5 8 Sur 11 Sur 0 1005.4 -- 89
2020-09-07 22:00:00 17.1 8 Noroeste 18 Noroeste 0 1004.9 -- 80
2020-09-07 21:00:00 17.6 8 Noroeste 13 Noroeste 0 1004.1 -- 81
2020-09-07 20:00:00 19.7 8 Sudoeste 17 Sudoeste 0 1003.8 -- 77
2020-09-07 19:00:00 21.3 7 Sudoeste 21 Sudoeste 0 1003.2 -- 73
2020-09-07 18:00:00 22.8 12 Oeste 22 Sudoeste 0 1002.7 -- 66
2020-09-07 17:00:00 22.6 13 Sudoeste 21 Sudoeste 0 1002.5 -- 60
2020-09-07 16:00:00 23.8 12 Sudoeste 22 Sudoeste 0 1002.2 -- 56
2020-09-07 15:00:00 24.3 16 Sudoeste 28 Sur 0 1002.4 -- 54
2020-09-07 14:00:00 24.4 15 Sur 28 Sur 0 1002.7 -- 52
2020-09-07 13:00:00 23.2 15 Sur 22 Sur 0 1002.8 -- 57
2020-09-07 12:00:00 22 13 Sur 18 Sur 0 1002.9 -- 63
2020-09-07 11:00:00 19.7 7 Sudeste 11 Sudeste 0 1002.7 -- 80
2020-09-07 10:00:00 20.4 4 Este 9 Este 0 1001.9 -- 76
2020-09-07 09:00:00 17.5 0 Calma 8 Norte 0 1001.4 -- 86
2020-09-07 08:00:00 16 0 Calma 13 Norte 0 1001 -- 88
2020-09-07 07:00:00 15.8 8 Nordeste 11 Nordeste 0 1000.9 -- 91
2020-09-07 06:00:00 15.9 4 Norte 15 Norte 0 1000.6 -- 91
2020-09-07 05:00:00 16.1 9 Norte 17 Norte 0 1001 -- 91
2020-09-07 04:00:00 16.6 10 Este 21 Nordeste 0 1000.9 -- 91
2020-09-07 03:00:00 16.8 5 Sudoeste 13 Norte 0 1001.1 -- 95
2020-09-07 02:00:00 16.9 7 Norte 13 Norte 0 1001 -- 91
2020-09-07 01:00:00 17.1 10 Nordeste 17 Nordeste 0 1000.9 -- 93
2020-09-07 00:00:00 17.6 5 Nordeste 22 Nordeste 0 1001.4 -- 94
2020-09-06 23:00:00 17.8 15 Nordeste 21 Este 0 1001.8 -- 95
2020-09-06 22:00:00 18.2 7 Nordeste 13 Nordeste 0 1001.8 -- 90
2020-09-06 21:00:00 18.4 12 Este 28 Nordeste 0 1000.8 -- 84
2020-09-06 20:00:00 20.3 17 Nordeste 30 Nordeste 0 1000.5 -- 71
2020-09-06 19:00:00 21.3 15 Nordeste 21 Este 0 1000.2 -- 69
2020-09-06 18:00:00 21.3 5 Nordeste 15 Este 0.1 1000.1 -- 81
2020-09-06 17:00:00 21.6 12 Nordeste 17 Nordeste 0 1000.1 -- 75
2020-09-06 16:00:00 22.4 9 Este 15 Nordeste 2.1 1000.2 -- 85
2020-09-06 15:00:00 24 7 Este 15 Este 0.7 1000.3 -- 75
2020-09-06 14:00:00 25.8 13 Este 17 Este 0 1000.6 -- 59
2020-09-06 13:00:00 25.7 13 Norte 22 Nordeste 0 1000.9 -- 58
2020-09-06 12:00:00 23.6 13 Nordeste 24 Norte 0 1001.4 -- 65
2020-09-06 11:00:00 24 15 Norte 22 Nordeste 0 1001.4 -- 65
2020-09-06 10:00:00 22.8 11 Norte 18 Norte 0 1001.3 -- 72
2020-09-06 09:00:00 21.3 10 Norte 13 Nordeste 0 1001.2 -- 83
2020-09-06 08:00:00 19.3 9 Norte 15 Norte 0 1001.2 -- 98
2020-09-06 07:00:00 18.4 4 Norte 9 Norte 0 1000.8 -- 99
2020-09-06 06:00:00 18.3 9 Nordeste 13 Nordeste 0 1000.8 -- 100
2020-09-06 05:00:00 18.6 5 Nordeste 8 Nordeste 0 1000.9 -- 100
2020-09-06 04:00:00 18.6 5 Oeste 8 Oeste 0 1000.9 -- 99
2020-09-06 03:00:00 18.7 4 Nordeste 5 Nordeste 0 1001.1 -- 99
2020-09-06 02:00:00 18.7 0 Calma 8 Nordeste 0 1001.3 -- 97
2020-09-06 01:00:00 19.6 0 Calma -- -- 0 1001.7 -- 96
2020-09-06 00:00:00 20.2 0 Calma 2 Este 0 1001.9 -- 96
2020-09-05 23:00:00 20.4 0 Calma -- -- 0 1002.2 -- 92
2020-09-05 22:00:00 21.7 0 Calma 11 Sudoeste 0 1002.3 -- 86
2020-09-05 21:00:00 22.6 8 Sur 18 Sur 0 1002.1 -- 85
2020-09-05 20:00:00 24.1 13 Sur 22 Sur 0 1001.9 -- 79
2020-09-05 19:00:00 26.6 15 Sur 26 Sur 0 1002.1 -- 70
2020-09-05 18:00:00 27.8 18 Sur 26 Sur 0 1002.1 -- 64
2020-09-05 17:00:00 29.1 14 Sur 26 Sur 0 1002.3 -- 56
2020-09-05 16:00:00 29.7 14 Sur 26 Sur 0 1002.9 -- 55
2020-09-05 15:00:00 30.1 5 Sur 15 Sudoeste 0 1003.5 -- 51
2020-09-05 14:00:00 28.9 6 Sur 15 Sur 0 1004.1 -- 54
2020-09-05 13:00:00 27.6 6 Este 15 Sur 0 1004.7 -- 58
2020-09-05 12:00:00 26.4 8 Sudeste 17 Sudeste 0 1005.1 -- 66
2020-09-05 11:00:00 24.9 8 Este 13 Este 0 1005.5 -- 74
2020-09-05 10:00:00 23.5 7 Nordeste 13 Nordeste 0 1005.4 -- 80
2020-09-05 09:00:00 21.4 8 Norte 15 Norte 0 1005.2 -- 90
2020-09-05 08:00:00 19.8 5 Norte 11 Norte 0 1005.2 -- 97
2020-09-05 07:00:00 19.4 9 Norte 11 Norte 0 1005 -- 98
2020-09-05 06:00:00 19.1 8 Norte 9 Norte 0 1005 -- 96
2020-09-05 05:00:00 19.7 7 Norte 9 Norte 0 1005.2 -- 96
2020-09-05 04:00:00 19 0 Calma -- -- 0 1005.6 -- 96
2020-09-05 03:00:00 19.4 0 Calma 9 Norte 0 1006.1 -- 96
2020-09-05 02:00:00 20 5 Norte 8 Norte 0 1006.6 -- 95
2020-09-05 01:00:00 20.4 5 Norte 8 Norte 0 1006.8 -- 96
2020-09-05 00:00:00 20 0 Calma 2 Norte 0 1007 -- 96
2020-09-04 23:00:00 20.5 0 Calma 4 Sur 0 1007 -- 89
2020-09-04 22:00:00 21.7 3 Sudeste 9 Sur 0 1007.1 -- 85
2020-09-04 21:00:00 22.7 7 Sur 17 Sur 0 1006.9 -- 82
2020-09-04 20:00:00 24.6 11 Sur 18 Sur 0 1006.6 -- 73
2020-09-04 19:00:00 25.5 13 Sudeste 22 Sudeste 0 1006.8 -- 71
2020-09-04 18:00:00 26.3 16 Sudeste 26 Sudeste 0 1006.8 -- 68
2020-09-04 17:00:00 28.1 21 Sudeste 30 Sudeste 0 1006.8 -- 60
2020-09-04 16:00:00 29.7 20 Sudeste 28 Sudeste 0 1007 -- 57
2020-09-04 15:00:00 30.7 8 Sudoeste 15 Sur 0 1007.7 -- 38
2020-09-04 14:00:00 30.1 8 Sudeste 17 Sur 0 1008.3 -- 39
2020-09-04 13:00:00 29 8 Sur 15 Sudoeste 0 1008.9 -- 41
2020-09-04 12:00:00 27.7 6 Sur 15 Sur 0 1009.4 -- 51
2020-09-04 11:00:00 25.5 4 Este 11 Nordeste 0 1009.5 -- 64
2020-09-04 10:00:00 22.5 4 Nordeste 9 Este 0 1009.3 -- 78
2020-09-04 09:00:00 19.5 4 Nordeste 5 Nordeste 0 1008.8 -- 90
2020-09-04 08:00:00 16.1 4 Norte 9 Norte 0 1008.7 -- 100
2020-09-04 07:00:00 15.4 2 Norte 8 Noroeste 0 1008.2 -- 100
2020-09-04 06:00:00 16.2 8 Noroeste 9 Noroeste 0 1007.6 -- 100
2020-09-04 05:00:00 16.1 6 Sudeste 9 Sudeste 0 1007.6 -- 99
2020-09-04 04:00:00 16.6 5 Oeste 8 Oeste 0 1007.4 -- 98
2020-09-04 03:00:00 17 3 Norte 8 Norte 0 1007.7 -- 98
2020-09-04 02:00:00 16.9 6 Nordeste 9 Nordeste 0 1008.1 -- 96
2020-09-04 01:00:00 18 4 Nordeste 9 Nordeste 0 1008.2 -- 94
2020-09-04 00:00:00 18.8 4 Oeste 8 Noroeste 0 1008.1 -- 89
2020-09-03 23:00:00 19.3 0 Calma 4 Nordeste 0 1008 -- 87
2020-09-03 22:00:00 20.6 0 Calma 9 Sudoeste 0 1007.9 -- 82
2020-09-03 21:00:00 21.7 8 Sur 17 Sur 0 1007.2 -- 75
2020-09-03 20:00:00 23 14 Sur 30 Sur 0 1006.6 -- 67
2020-09-03 19:00:00 24.9 20 Sur 33 Sur 0 1006.3 -- 59
2020-09-03 18:00:00 26.3 23 Sur 32 Sur 0 1006 -- 55
2020-09-03 17:00:00 27.4 21 Sur 30 Sudoeste 0 1005.8 -- 50
2020-09-03 16:00:00 28.1 16 Sur 37 Sur 0 1005.9 -- 50
2020-09-03 15:00:00 27.5 10 Sur 24 Sudoeste 0 1006.3 -- 50
2020-09-03 14:00:00 28.4 9 Sur 18 Sur 0 1006.3 -- 50
2020-09-03 13:00:00 27 6 Sur 13 Sur 0 1006.4 -- 50
2020-09-03 12:00:00 26 4 Sur 13 Este 0 1006.5 -- 53
2020-09-03 11:00:00 24.3 8 Este 13 Este 0 1006.5 -- 54
2020-09-03 10:00:00 19.9 3 Nordeste 5 Nordeste 0 1006.2 -- 83
2020-09-03 09:00:00 18.1 0 Calma 8 Norte 0 1005.8 -- 91
2020-09-03 08:00:00 14.7 4 Nordeste 8 Nordeste 0 1005.5 -- 100
2020-09-03 07:00:00 14.4 0 Calma 4 Oeste 0 1004.8 -- 99
2020-09-03 06:00:00 14.9 0 Calma 5 Nordeste 0 1004.3 -- 99
2020-09-03 05:00:00 15.4 4 Nordeste 5 Nordeste 0 1004.1 -- 98
2020-09-03 04:00:00 15.8 2 Este -- -- 0 1004.1 -- 96
2020-09-03 03:00:00 16.2 5 Nordeste 9 Nordeste 0 1004.2 -- 95
2020-09-03 02:00:00 17.3 3 Noroeste 8 Oeste 0 1004.5 -- 92
2020-09-03 01:00:00 18.6 3 Noroeste 9 Nordeste 0 1004.4 -- 91
2020-09-03 00:00:00 19.7 7 Nordeste 13 Norte 0 1004 -- 90
2020-09-02 23:00:00 19.9 8 Norte 11 Norte 0 1003.6 -- 89
2020-09-02 22:00:00 20.9 3 Sur 11 Sur 0 1003.1 -- 81
2020-09-02 21:00:00 21.5 8 Sur 18 Sur 0 1002.1 -- 78
2020-09-02 20:00:00 23.1 12 Sur 22 Sur 0 1001.1 -- 70
2020-09-02 19:00:00 25.1 15 Sur 26 Sur 0 1000.4 -- 60
2020-09-02 18:00:00 26.3 21 Sur 32 Sur 0 1000.1 -- 56
2020-09-02 17:00:00 27.6 19 Sur 32 Sur 0 1000 -- 52
2020-09-02 16:00:00 27.1 19 Sur 28 Sur 0 999.8 -- 52
2020-09-02 15:00:00 26.7 14 Sur 24 Sur 0 999.9 -- 52
2020-09-02 14:00:00 27.1 13 Sur 22 Sur 0 1000.1 -- 48
2020-09-02 13:00:00 24.7 6 Sudoeste 17 Sur 0 1000.4 -- 58
2020-09-02 12:00:00 24.4 3 Sudoeste 11 Sudeste 0 1000.7 -- 62
2020-09-02 11:00:00 20.9 4 Este 9 Nordeste 0 1000.6 -- 100
2020-09-02 10:00:00 19.3 4 Sudeste 8 Sudeste 0 1000 -- 100
2020-09-02 09:00:00 17.4 2 Sudeste 5 Sudeste 0 999.7 -- 100
2020-09-02 08:00:00 15.2 0 Calma 8 Oeste 0 999.5 -- 100
2020-09-02 07:00:00 15.1 2 Oeste 5 Oeste 0 999.5 -- 100
2020-09-02 06:00:00 14.6 2 Norte 9 Norte 0 998.9 -- 100
2020-09-02 05:00:00 14.7 0 Calma 5 Oeste 0 998.8 -- 100
2020-09-02 04:00:00 15.1 3 Norte 8 Norte 0 998.8 -- 100
2020-09-02 03:00:00 15 5 Oeste 8 Oeste 0 998.8 -- 100
2020-09-02 02:00:00 15.6 3 Sur 9 Norte 0 998.8 -- 100
2020-09-02 01:00:00 16.1 8 Norte 13 Noroeste 0 998.6 -- 100
2020-09-02 00:00:00 16.2 2 Oeste 17 Oeste 0.5 998.8 -- 100
2020-09-01 23:00:00 15.8 8 Noroeste 15 Oeste 2.9 998.5 -- 100
2020-09-01 22:00:00 15.8 9 Noroeste 18 Norte 4.3 999 -- 100
2020-09-01 21:00:00 15.1 20 Norte 58 Norte 23.5 998.7 -- 100
2020-09-01 20:00:00 22.2 9 Sudeste 17 Sudeste 0 997.1 -- 74
2020-09-01 19:00:00 23.2 13 Sudeste 21 Sudeste 0 996.7 -- 69
2020-09-01 18:00:00 24 12 Sur 26 Sur 0 996.9 -- 67
2020-09-01 17:00:00 24.5 17 Sur 28 Sur 0 996.8 -- 64
2020-09-01 16:00:00 25.1 18 Sur 26 Sur 0 997 -- 59
2020-09-01 15:00:00 26.4 16 Sur 28 Sur 0 997.5 -- 53
2020-09-01 14:00:00 26.3 15 Sur 26 Sur 0 998 -- 50
2020-09-01 13:00:00 26 10 Sur 22 Sur 0 998.5 -- 49
2020-09-01 12:00:00 24.7 9 Sur 15 Sur 0 999.3 -- 48
2020-09-01 11:00:00 23.4 3 Este 11 Nordeste 0 999.5 -- 49
2020-09-01 10:00:00 19.6 2 Este 8 Este 0 999.6 -- 75
2020-09-01 09:00:00 15.1 0 Calma 8 Oeste 0 999.6 -- 93
2020-09-01 08:00:00 13 2 Noroeste 8 Oeste 0 999.5 -- 98
2020-09-01 07:00:00 12.9 0 Calma 4 Nordeste 0 999.4 -- 97
2020-09-01 06:00:00 13.1 3 Norte 11 Noroeste 0 999.5 -- 96
2020-09-01 05:00:00 13.7 0 Calma 4 Este 0 999.8 -- 94
2020-09-01 04:00:00 14.3 0 Calma 8 Sudoeste 0 1000.4 -- 89
2020-09-01 03:00:00 15.1 0 Calma -- -- 0 1000.9 -- 89
2020-09-01 02:00:00 15.9 0 Calma 11 Norte 0 1001.3 -- 86
2020-09-01 01:00:00 16.5 9 Noroeste 13 Noroeste 0 1001.5 -- 79
2020-09-01 00:00:00 16.4 8 Oeste 11 Oeste 0 1001.6 -- 83
2020-08-31 23:00:00 19.1 5 Norte 15 Norte 0 1001.8 -- 71
2020-08-31 22:00:00 19.1 7 Norte 15 Norte 0 1001.7 -- 74
2020-08-31 21:00:00 20.8 10 Este 17 Este 0 1001 -- 68
2020-08-31 20:00:00 23.1 10 Este 21 Este 0 1000.2 -- 60
2020-08-31 19:00:00 25.6 14 Este 21 Este 0 1000 -- 48
2020-08-31 18:00:00 27 9 Sur 26 Sur 0 999.8 -- 46
2020-08-31 17:00:00 27.1 9 Sur 17 Sur 0 1000.1 -- 42
2020-08-31 16:00:00 26.9 9 Sudoeste 22 Este 0 1000.7 -- 37
2020-08-31 15:00:00 25.4 6 Este 24 Sudoeste 0 1001.4 -- 43
2020-08-31 14:00:00 25.5 12 Sur 24 Sudoeste 0 1002 -- 43
2020-08-31 13:00:00 24 11 Sur 18 Sur 0 1002.5 -- 48
2020-08-31 12:00:00 22.9 10 Sur 17 Sur 0 1002.6 -- 53
2020-08-31 11:00:00 20.7 5 Sudeste 11 Sudeste 0 1003 -- 64
2020-08-31 10:00:00 18.3 2 Noroeste 8 Norte 0 1002.5 -- 77
2020-08-31 09:00:00 15.2 0 Calma 5 Sudoeste 0 1002.2 -- 92
2020-08-31 08:00:00 11.8 2 Este 5 Este 0 1001.6 -- 100
2020-08-31 07:00:00 11 0 Calma 8 Este 0 1001.1 -- 100
2020-08-31 06:00:00 11.7 2 Sudeste 9 Norte 0 1000.9 -- 99
2020-08-31 05:00:00 12.1 7 Norte 11 Sudoeste 0 1001 -- 100
2020-08-31 04:00:00 13.3 11 Sur 21 Noroeste 0 1001.4 -- 96
2020-08-31 03:00:00 13.9 9 Noroeste 17 Noroeste 0 1001.2 -- 93
2020-08-31 02:00:00 13.5 0 Calma 8 Norte 0 1001.6 -- 100
2020-08-31 01:00:00 14.5 3 Noroeste 11 Norte 0 1001.6 -- 99
2020-08-31 00:00:00 15.3 7 Sudeste 11 Sudeste 0 1001.4 -- 98
2020-08-30 23:00:00 15.2 6 Norte 11 Sur 0 1001.6 -- 99
2020-08-30 22:00:00 15.1 3 Oeste 9 Norte 0.1 1001.3 -- 98
2020-08-30 21:00:00 15.2 4 Oeste 15 Oeste 0.2 1000.5 -- 96
2020-08-30 20:00:00 15.5 6 Sur 21 Sur 0.6 999.4 -- 95
2020-08-30 19:00:00 15.9 17 Sur 28 Sur 0.1 998.9 -- 87
2020-08-30 18:00:00 17.4 18 Este 28 Sudeste 0 998 -- 79
2020-08-30 17:00:00 21.5 17 Este 26 Este 0 997.4 -- 65
2020-08-30 16:00:00 20.9 14 Este 24 Sudeste 0 997.2 -- 70
2020-08-30 15:00:00 19 8 Este 18 Sudeste 0.9 997 -- 80
2020-08-30 14:00:00 21.3 5 Norte 18 Sudoeste 0.5 997 -- 73
2020-08-30 13:00:00 24.8 6 Oeste 26 Sudoeste 0 996.9 -- 51
2020-08-30 12:00:00 23.1 5 Este 15 Este 0 996.7 -- 53
2020-08-30 11:00:00 20.9 4 Este 13 Norte 0 996.3 -- 66
2020-08-30 10:00:00 17.9 3 Sudeste 8 Sudeste 0 995.8 -- 77
2020-08-30 09:00:00 14 4 Nordeste 13 Nordeste 0 994.9 -- 94
2020-08-30 08:00:00 12.1 4 Nordeste 8 Nordeste 0 994.2 -- 100
2020-08-30 07:00:00 11.1 4 Nordeste 8 Nordeste 0 993.5 -- 100
2020-08-30 06:00:00 11.6 3 Norte 9 Oeste 0 993.1 -- 99
2020-08-30 05:00:00 12.3 4 Noroeste 9 Oeste 0 992.7 -- 99
2020-08-30 04:00:00 12.6 10 Sur 13 Sur 0 992.5 -- 97
2020-08-30 03:00:00 14.1 13 Norte 18 Norte 0.7 992.1 -- 93
2020-08-30 02:00:00 15.3 8 Noroeste 32 Oeste 0.8 992.9 -- 83
2020-08-30 01:00:00 16.8 3 Norte 18 Noroeste 0 992.4 -- 79
2020-08-30 00:00:00 16.9 5 Sudoeste 15 Noroeste 0 991.9 -- 84
2020-08-29 23:00:00 16.6 5 Oeste 11 Oeste 0 991.2 -- 93
2020-08-29 22:00:00 17.2 3 Norte 11 Oeste 0 990.7 -- 86
2020-08-29 21:00:00 17.6 8 Oeste 11 Oeste 0 990 -- 91
2020-08-29 20:00:00 18 5 Oeste 15 Sudoeste 0 989.4 -- 87
2020-08-29 19:00:00 19.1 11 Este 18 Este 0.4 989.1 -- 73
2020-08-29 18:00:00 21.7 13 Nordeste 22 Norte 0 988.8 -- 53
2020-08-29 17:00:00 22.6 13 Norte 26 Nordeste 0 988.6 -- 56
2020-08-29 16:00:00 22.1 13 Norte 22 Norte 0 989 -- 62
2020-08-29 15:00:00 21.3 9 Nordeste 24 Norte 0 989.2 -- 63
2020-08-29 14:00:00 19.9 13 Norte 18 Norte 0 989 -- 76
2020-08-29 13:00:00 18 9 Nordeste 18 Norte 0 989.7 -- 82
2020-08-29 12:00:00 17.2 9 Norte 15 Norte 0 990.2 -- 90
2020-08-29 11:00:00 16.1 10 Nordeste 18 Nordeste 0 990.1 -- 96
2020-08-29 10:00:00 14.9 12 Norte 22 Norte 0 990 -- 99
2020-08-29 09:00:00 14.2 14 Norte 26 Nordeste 1.2 990 -- 100
2020-08-29 08:00:00 14 16 Norte 28 Nordeste 1.2 990 -- 99
2020-08-29 07:00:00 14.1 13 Norte 32 Nordeste 0.4 990.4 -- 97
2020-08-29 06:00:00 14.7 19 Nordeste 33 Nordeste 0.6 989.4 -- 94
2020-08-29 05:00:00 15.7 22 Norte 42 Nordeste 0 989.7 -- 90
2020-08-29 04:00:00 15.6 24 Nordeste 37 Norte 1 989.9 -- 93
2020-08-29 03:00:00 16.8 19 Norte 46 Nordeste 0.1 991.4 -- 82
2020-08-29 02:00:00 16.3 15 Norte 30 Norte 0.2 990.8 -- 90
2020-08-29 01:00:00 16.6 18 Norte 28 Norte 0 990.7 -- 87
2020-08-29 00:00:00 17.3 16 Nordeste 35 Nordeste 0.3 990.5 -- 85
2020-08-28 23:00:00 19.6 19 Nordeste 30 Nordeste 0.2 991.2 -- 76
2020-08-28 22:00:00 20.6 16 Nordeste 26 Nordeste 0 990.7 -- 71
2020-08-28 21:00:00 21.1 17 Nordeste 32 Nordeste 0 990.9 -- 69
2020-08-28 20:00:00 22 25 Nordeste 35 Nordeste 0 990.6 -- 70
2020-08-28 19:00:00 23.9 20 Nordeste 37 Nordeste 0 989.9 -- 65
2020-08-28 18:00:00 27.2 18 Sudeste 30 Sur 0 990.3 -- 63
2020-08-28 17:00:00 27.9 19 Sudeste 32 Sudeste 0 990.4 -- 64
2020-08-28 16:00:00 30.8 15 Sudeste 30 Sur 0 990.5 -- 53
2020-08-28 15:00:00 33.3 17 Sur 28 Sudeste 0 990.6 -- 38
2020-08-28 14:00:00 33.1 11 Sur 26 Sur 0 991.2 -- 44
2020-08-28 13:00:00 33 14 Sur 26 Sur 0 991.9 -- 41
2020-08-28 12:00:00 31.3 5 Este 18 Sudoeste 0 992.5 -- 49
2020-08-28 11:00:00 29.8 7 Sudeste 13 Sudeste 0 993.4 -- 58
2020-08-28 10:00:00 26.5 4 Nordeste 8 Nordeste 0 993.6 -- 75
2020-08-28 09:00:00 22.8 3 Este 8 Este 0 994.1 -- 91
2020-08-28 08:00:00 20.1 0 Calma 5 Oeste 0 994.3 -- 99
2020-08-28 07:00:00 19.6 0 Calma 5 Nordeste 0 994.4 -- 99
2020-08-28 06:00:00 19.9 5 Nordeste 8 Oeste 0 994.7 -- 99
2020-08-28 05:00:00 20.5 2 Sudoeste 5 Sudoeste 0 995.3 -- 98
2020-08-28 04:00:00 21.6 5 Oeste -- -- 0 996 -- 99
2020-08-28 03:00:00 22 0 Calma -- -- 0 996.6 -- 98
2020-08-28 02:00:00 22.8 0 Calma 2 Este 0 997.1 -- 93
2020-08-28 01:00:00 23.8 0 Calma 5 Sudeste 0 997.6 -- 90
2020-08-28 00:00:00 24.8 3 Este 9 Sur 0 998.1 -- 88
2020-08-27 23:00:00 25.2 6 Sur 15 Sur 0 998.3 -- 87
2020-08-27 22:00:00 25.6 11 Sur 15 Sur 0 998.4 -- 84
2020-08-27 21:00:00 26 11 Sur 24 Sur 0 998.1 -- 81
2020-08-27 20:00:00 27.5 15 Sur 28 Sur 0 998 -- 75
2020-08-27 19:00:00 29.2 18 Sur 33 Sur 0 998.2 -- 68
2020-08-27 18:00:00 30.4 25 Sur 37 Sur 0 998.4 -- 62
2020-08-27 17:00:00 31.6 24 Sur 35 Sur 0 998.7 -- 58
2020-08-27 16:00:00 31.1 25 Sur 37 Sur 0 999.3 -- 59
2020-08-27 15:00:00 32.7 19 Sur 32 Sur 0 1000.1 -- 52
2020-08-27 14:00:00 32.2 21 Sur 32 Sur 0 1000.5 -- 53
2020-08-27 13:00:00 31.2 17 Sur 30 Sur 0 1001.3 -- 58
2020-08-27 12:00:00 31.1 15 Sur 28 Sur 0 1001.8 -- 56
2020-08-27 11:00:00 28.5 9 Sur 15 Sudeste 0 1002.1 -- 69
2020-08-27 10:00:00 24.5 4 Nordeste 9 Nordeste 0 1002.1 -- 81
2020-08-27 09:00:00 21.6 5 Norte 9 Norte 0 1002.2 -- 100
2020-08-27 08:00:00 20.4 6 Nordeste 8 Norte 0 1001.9 -- 100
2020-08-27 07:00:00 19.8 0 Calma 4 Oeste 0 1001.6 -- 99
2020-08-27 06:00:00 20.4 5 Oeste -- -- 0 1001.5 -- 99
2020-08-27 05:00:00 20.7 0 Calma 5 Nordeste 0 1001.9 -- 97
2020-08-27 04:00:00 21.6 4 Norte 11 Norte 0 1002.4 -- 95
2020-08-27 03:00:00 21.7 5 Oeste 8 Oeste 0 1002.8 -- 97
2020-08-27 02:00:00 22.2 2 Noroeste 5 Nordeste 0 1003.1 -- 96
2020-08-27 01:00:00 22.4 4 Nordeste 5 Nordeste 0 1003.2 -- 93
2020-08-27 00:00:00 23.4 0 Calma 4 Oeste 0 1003.2 -- 87
2020-08-26 23:00:00 24.3 0 Calma 5 Noroeste 0 1003.3 -- 87
2020-08-26 22:00:00 25.3 0 Calma 15 Sudeste 0 1002.9 -- 83
2020-08-26 21:00:00 26 10 Sudeste 18 Este 0 1002.3 -- 79
2020-08-26 20:00:00 28.2 11 Este 24 Sudeste 0 1001.7 -- 71
2020-08-26 19:00:00 29.4 13 Sudeste 28 Sur 0 1001.2 -- 64
2020-08-26 18:00:00 30.7 21 Sur 33 Sur 0 1001.1 -- 60
2020-08-26 17:00:00 32.1 22 Sur 37 Sur 0 1001.2 -- 55
2020-08-26 16:00:00 32.4 26 Sur 35 Sur 0 1001.7 -- 52
2020-08-26 15:00:00 32.8 23 Sur 35 Sur 0 1002.1 -- 49
2020-08-26 14:00:00 32.8 22 Sur 35 Sur 0 1002.7 -- 49
2020-08-26 13:00:00 32.6 17 Sur 37 Sur 0 1003.1 -- 47
2020-08-26 12:00:00 31.7 19 Sur 28 Sudoeste 0 1003.4 -- 47
2020-08-26 11:00:00 29.9 15 Sur 22 Sur 0 1003.4 -- 58
2020-08-26 10:00:00 26.8 3 Sur 9 Sudeste 0 1003.1 -- 73
2020-08-26 09:00:00 24 0 Calma 8 Nordeste 0 1002.7 -- 90
2020-08-26 08:00:00 20.6 0 Calma 5 Noroeste 0 1002.5 -- 100
2020-08-26 07:00:00 19.3 2 Nordeste 8 Norte 0 1002.1 -- 100
2020-08-26 06:00:00 19.7 2 Este 8 Oeste 0 1001.9 -- 97
2020-08-26 05:00:00 20.2 5 Oeste 8 Oeste 0 1001.8 -- 99
2020-08-26 04:00:00 20.6 4 Nordeste 9 Nordeste 0 1001.8 -- 99
2020-08-26 03:00:00 21.8 5 Oeste 9 Oeste 0 1001.4 -- 98
2020-08-26 02:00:00 22.3 3 Norte 11 Nordeste 0 1001.5 -- 97
2020-08-26 01:00:00 23.4 0 Calma 5 Norte 0 1001.6 -- 93
2020-08-26 00:00:00 24.5 2 Sudoeste 5 Sur 0 1001.4 -- 91
2020-08-25 23:00:00 25.5 0 Calma 5 Sur 0 1001.1 -- 86
2020-08-25 22:00:00 26.3 5 Sur 11 Sur 0 1000.3 -- 83
2020-08-25 21:00:00 27.1 8 Sur 22 Sur 0 999.4 -- 80
2020-08-25 20:00:00 28.9 14 Sur 28 Sur 0 998.6 -- 73
2020-08-25 19:00:00 30.6 19 Sur 32 Sur 0 998.3 -- 64
2020-08-25 18:00:00 32.5 25 Sur 33 Sur 0 998.2 -- 57
2020-08-25 17:00:00 33.8 22 Sur 33 Sur 0 998 -- 52
2020-08-25 16:00:00 34.3 22 Sur 32 Sur 0 998.3 -- 51
2020-08-25 15:00:00 35.1 13 Sur 28 Sur 0 998.4 -- 45
2020-08-25 14:00:00 34.5 8 Sudeste 18 Sur 0 998.6 -- 41
2020-08-25 13:00:00 32.9 4 Sudoeste 11 Sur 0 999 -- 40
2020-08-25 12:00:00 30.8 6 Sur 13 Sur 0 999.2 -- 45
2020-08-25 11:00:00 27.8 5 Este 11 Este 0 999.4 -- 55
2020-08-25 10:00:00 25.1 3 Sudeste 8 Este 0 999.3 -- 66
2020-08-25 09:00:00 21.6 3 Sur 9 Sur 0 999.2 -- 78
2020-08-25 08:00:00 17.2 6 Oeste 8 Oeste 0 999 -- 96
2020-08-25 07:00:00 16.8 0 Calma 4 Nordeste 0 998.8 -- 99
2020-08-25 06:00:00 17 0 Calma 8 Oeste 0 998.9 -- 97
2020-08-25 05:00:00 17.9 5 Sudoeste 11 Noroeste 0 999.2 -- 95
2020-08-25 04:00:00 18.4 6 Sur 9 Sur 0 999.6 -- 96
2020-08-25 03:00:00 19.1 0 Calma 8 Norte 0 999.8 -- 94
2020-08-25 02:00:00 20.2 0 Calma 5 Norte 0 999.9 -- 93
2020-08-25 01:00:00 20.6 0 Calma 5 Norte 0 1000.1 -- 88
2020-08-25 00:00:00 22 0 Calma 5 Nordeste 0 1000.4 -- 83
2020-08-24 23:00:00 23.5 5 Sudoeste 15 Sur 0 1000.4 -- 80
2020-08-24 22:00:00 24.3 12 Sur 21 Sur 0 1000.3 -- 76
2020-08-24 21:00:00 24.9 14 Sur 22 Sur 0 999.8 -- 73
2020-08-24 20:00:00 25.9 15 Sur 28 Sur 0 999.3 -- 68
2020-08-24 19:00:00 27.6 18 Sur 28 Sur 0 999.4 -- 60
2020-08-24 18:00:00 29.1 22 Sur 32 Sur 0 999.6 -- 54
2020-08-24 17:00:00 29.9 22 Sur 33 Sur 0 999.9 -- 51
2020-08-24 16:00:00 30.3 21 Sur 39 Sur 0 1000.4 -- 49
2020-08-24 15:00:00 31 24 Sur 35 Sur 0 1000.7 -- 46
2020-08-24 14:00:00 30.9 13 Sur 24 Sur 0 1000.6 -- 44
2020-08-24 13:00:00 29.8 5 Sudeste 24 Este 0 1001.1 -- 45
2020-08-24 12:00:00 29 4 Este 15 Norte 0 1001.8 -- 46
2020-08-24 11:00:00 26.8 8 Nordeste 17 Norte 0 1001.9 -- 48
2020-08-24 10:00:00 24.7 12 Nordeste 18 Norte 0 1002 -- 54
2020-08-24 09:00:00 22.8 11 Norte 17 Nordeste 0 1001.9 -- 59
2020-08-24 08:00:00 19.7 0 Calma 9 Norte 0 1001.6 -- 78
2020-08-24 07:00:00 20.4 0 Calma 15 Norte 0 1001.4 -- 73
2020-08-24 06:00:00 20.6 11 Norte 13 Norte 0 1001.3 -- 75
2020-08-24 05:00:00 21.1 6 Nordeste 9 Nordeste 0 1001.5 -- 79
2020-08-24 04:00:00 21.3 0 Calma 9 Nordeste 0 1001.7 -- 90
2020-08-24 03:00:00 21.2 5 Norte 9 Oeste 0 1001.7 -- 91
2020-08-24 02:00:00 20.4 5 Noroeste 9 Noroeste 0 1002.1 -- 93
2020-08-24 01:00:00 20.3 0 Calma 9 Norte 0 1002.3 -- 92
2020-08-24 00:00:00 21.4 0 Calma 4 Oeste 0 1002.4 -- 86
2020-08-23 23:00:00 22 2 Sur 13 Sur 0 1002.5 -- 82
2020-08-23 22:00:00 22.6 8 Sur 13 Sur 0 1002.7 -- 81
2020-08-23 21:00:00 23.6 11 Sur 18 Sur 0 1002.3 -- 76
2020-08-23 20:00:00 25.1 13 Sur 28 Sur 0 1002.2 -- 70
2020-08-23 19:00:00 26.3 18 Sur 28 Sur 0 1002.4 -- 67
2020-08-23 18:00:00 26.4 17 Sur 28 Sur 0 1002.5 -- 66
2020-08-23 17:00:00 26.7 24 Sur 33 Sur 0 1002.7 -- 63
2020-08-23 16:00:00 27.1 22 Sur 32 Sur 0 1003.1 -- 60
2020-08-23 15:00:00 27.8 18 Sudeste 30 Sudeste 0 1003.3 -- 56
2020-08-23 14:00:00 28.6 12 Este 24 Nordeste 0 1003.5 -- 49
2020-08-23 13:00:00 29.3 7 Sudeste 15 Este 0 1003.8 -- 46
2020-08-23 12:00:00 28.1 5 Norte 17 Este 0 1004.2 -- 48
2020-08-23 11:00:00 26.8 9 Nordeste 18 Nordeste 0 1004.4 -- 50
2020-08-23 10:00:00 25.2 11 Nordeste 15 Nordeste 0 1004.5 -- 56
2020-08-23 09:00:00 22.8 2 Este 8 Nordeste 0 1004.6 -- 69
2020-08-23 08:00:00 19.2 0 Calma 5 Oeste 0 1004.4 -- 86
2020-08-23 07:00:00 18.3 4 Noroeste 5 Noroeste 0 1004 -- 88
2020-08-23 06:00:00 19.4 0 Calma 5 Oeste 0 1003.8 -- 81
2020-08-23 05:00:00 20.3 4 Oeste 8 Oeste 0 1004.2 -- 83
2020-08-23 04:00:00 20.9 0 Calma 8 Noroeste 0 1004.2 -- 78
2020-08-23 03:00:00 20.1 3 Noroeste 5 Noroeste 0 1004.2 -- 75
2020-08-23 02:00:00 20.5 0 Calma 5 Nordeste 0 1004.3 -- 79
2020-08-23 01:00:00 21.1 0 Calma 8 Oeste 0 1004.4 -- 74
2020-08-23 00:00:00 21.8 4 Oeste 5 Oeste 0 1004.4 -- 69
2020-08-22 23:00:00 23.3 4 Norte 8 Nordeste 0 1004.2 -- 64
2020-08-22 22:00:00 25.4 5 Sudeste 11 Sudeste 0 1003.9 -- 57
2020-08-22 21:00:00 26.6 9 Sudeste 18 Sur 0 1003 -- 66
2020-08-22 20:00:00 28.2 15 Sur 26 Sur 0 1002.5 -- 55
2020-08-22 19:00:00 29.4 16 Sur 28 Sur 0 1002.3 -- 53
2020-08-22 18:00:00 31.5 22 Sur 33 Sudoeste 0 1002.3 -- 48
2020-08-22 17:00:00 33.1 22 Sur 37 Sur 0 1002.2 -- 47
2020-08-22 16:00:00 34.6 23 Sur 35 Sur 0 1002.3 -- 41
2020-08-22 15:00:00 35.4 12 Sur 21 Sur 0 1002.3 -- 36
2020-08-22 14:00:00 34.1 10 Este 24 Norte 0 1002.6 -- 38
2020-08-22 13:00:00 32.8 12 Nordeste 26 Nordeste 0 1003.1 -- 41
2020-08-22 12:00:00 31.6 13 Nordeste 28 Nordeste 0 1003.4 -- 46
2020-08-22 11:00:00 30.3 10 Nordeste 18 Nordeste 0 1003.6 -- 53
2020-08-22 10:00:00 28.5 4 Nordeste 9 Norte 0 1003.1 -- 63
2020-08-22 09:00:00 25 0 Calma 9 Norte 0 1003 -- 73
2020-08-22 08:00:00 23 5 Noroeste 13 Noroeste 0 1002.8 -- 76
2020-08-22 07:00:00 22.9 6 Norte 18 Norte 0 1002.4 -- 75
2020-08-22 06:00:00 23 13 Nordeste 21 Norte 0 1001.7 -- 75
2020-08-22 05:00:00 23.7 13 Nordeste 26 Nordeste 0 1001.6 -- 74
2020-08-22 04:00:00 24.9 14 Norte 28 Norte 0 1001.1 -- 86
2020-08-22 03:00:00 25.4 14 Norte 21 Norte 0 1000.9 -- 92
2020-08-22 02:00:00 25 6 Norte 9 Norte 0 1000.6 -- 94
2020-08-22 01:00:00 25.5 6 Norte 11 Norte 0 1000.3 -- 92
2020-08-22 00:00:00 25.2 7 Norte 8 Norte 0 1000 -- 92
2020-08-21 23:00:00 25.5 0 Calma 9 Sudoeste 0 999.8 -- 90
2020-08-21 22:00:00 26.4 5 Sudoeste 11 Sudoeste 0 999.4 -- 86
2020-08-21 21:00:00 26.4 9 Sur 17 Sur 0 998.3 -- 84
2020-08-21 20:00:00 28.3 13 Sur 22 Sur 0 997.9 -- 75
2020-08-21 19:00:00 30.2 17 Sur 30 Sur 0 997.7 -- 67
2020-08-21 18:00:00 31.6 21 Sur 32 Sur 0 997.8 -- 61
2020-08-21 17:00:00 32.8 24 Sur 35 Sur 0 997.4 -- 58
2020-08-21 16:00:00 34.5 21 Sur 32 Sur 0 997.4 -- 48
2020-08-21 15:00:00 34.4 13 Sur 26 Sur 0 997.6 -- 45
2020-08-21 14:00:00 34.1 15 Sur 26 Sur 0 997.9 -- 44
2020-08-21 13:00:00 32.5 13 Sur 22 Sur 0 998.3 -- 50
2020-08-21 12:00:00 30.9 12 Sur 22 Sur 0 998.6 -- 59
2020-08-21 11:00:00 27.7 7 Sur 13 Sur 0 998.4 -- 74
2020-08-21 10:00:00 26.2 6 Sur 11 Sudoeste 0 998.2 -- 84
2020-08-21 09:00:00 22.9 0 Calma 4 Oeste 0 997.9 -- 92
2020-08-21 08:00:00 20.7 0 Calma 5 Sur 0 997.5 -- 96
2020-08-21 07:00:00 18.9 2 Nordeste 9 Oeste 0 996.8 -- 93
2020-08-21 06:00:00 18.7 8 Oeste 11 Oeste 0 996.5 -- 90
2020-08-21 05:00:00 19.1 4 Sudoeste 5 Sudoeste 0 996.6 -- 92
2020-08-21 04:00:00 20.3 0 Calma 5 Noroeste 0 997 -- 94
2020-08-21 03:00:00 21.5 5 Oeste 8 Oeste 0 997.5 -- 91
2020-08-21 02:00:00 23.1 6 Noroeste 8 Noroeste 0 997.6 -- 96
2020-08-21 01:00:00 23.5 3 Sudoeste 11 Sur 0 997.6 -- 97
2020-08-21 00:00:00 23.5 5 Sur 11 Sur 0 997.2 -- 97